Terminal Aerodrome Forecast
Issued by NWS

Home | Current Version | Previous Version | Text Only | Print | Product List | Glossary On
Versions: 1 2 3 4 5 6 7 8 9 10 11 12 13 14 15 16 17 18 19 20 21 22 23 24
000
FTUS46 KLOX 240233 AAA
TAFSBA
TAF AMD
KSBA 240233Z 2403/2424 25006KT 4SM BR BKN003
     FM240600 VRB03KT 5SM BR OVC005
     FM241600 16006KT P6SM OVC007
     FM242000 23007KT P6SM SCT010=

USA.gov is the U.S. government's official web portal to all federal, state and local government web resources and services.